createdAt,value
2017-07-06T00:00:38.345Z,74.41
2017-07-06T00:03:05.560Z,74.75
2017-07-06T00:05:31.993Z,73.07
2017-07-06T00:07:58.534Z,74.21
2017-07-06T00:10:24.990Z,74.59
2017-07-06T00:12:51.361Z,72.74
2017-07-06T00:15:17.745Z,72.99
2017-07-06T00:17:44.110Z,72.39
2017-07-06T00:20:10.461Z,72.75
2017-07-06T00:22:36.829Z,71.91
2017-07-06T00:25:03.217Z,69.60
2017-07-06T00:27:29.579Z,70.24
2017-07-06T00:29:55.947Z,74.79
2017-07-06T00:32:22.298Z,77.37
2017-07-06T00:34:48.645Z,70.87
2017-07-06T00:37:15.006Z,71.66
2017-07-06T00:39:41.363Z,74.94
2017-07-06T00:42:07.733Z,76.28
2017-07-06T00:44:34.104Z,69.78
2017-07-06T00:47:00.458Z,67.82
2017-07-06T00:49:26.807Z,67.94
2017-07-06T00:51:53.163Z,68.25
2017-07-06T00:54:19.522Z,69.34
2017-07-06T00:56:45.867Z,70.42
2017-07-06T00:59:12.231Z,71.57
2017-07-06T01:01:38.599Z,72.83
2017-07-06T01:04:04.958Z,75.67
2017-07-06T01:06:31.313Z,74.46
2017-07-06T01:08:57.672Z,75.99
2017-07-06T01:11:24.050Z,72.17
2017-07-06T01:13:50.405Z,68.67
2017-07-06T01:16:16.793Z,69.16
2017-07-06T01:18:43.121Z,70.40
2017-07-06T01:21:09.474Z,74.40
2017-07-06T01:23:35.888Z,73.51
2017-07-06T01:26:02.248Z,73.85
2017-07-06T01:28:28.613Z,73.30
2017-07-06T01:30:55.014Z,71.65
2017-07-06T01:33:21.384Z,69.88
2017-07-06T01:35:47.746Z,67.84
2017-07-06T01:38:14.123Z,69.55
2017-07-06T01:40:40.549Z,71.69
2017-07-06T01:43:06.960Z,71.29
2017-07-06T01:45:33.392Z,73.41
2017-07-06T01:47:59.771Z,72.34
2017-07-06T01:50:26.159Z,72.39
2017-07-06T01:52:52.534Z,77.07
2017-07-06T01:55:18.934Z,77.93
2017-07-06T01:57:45.373Z,79.24
2017-07-06T02:00:11.792Z,79.83
2017-07-06T02:02:38.168Z,81.34
2017-07-06T02:05:04.535Z,80.52
2017-07-06T02:07:30.902Z,77.47
2017-07-06T02:09:57.289Z,72.56
2017-07-06T02:12:23.630Z,70.27
2017-07-06T02:14:49.971Z,69.48
2017-07-06T02:17:16.417Z,68.85
2017-07-06T02:19:42.844Z,68.80
2017-07-06T02:22:09.225Z,69.63
2017-07-06T02:24:35.566Z,72.13
2017-07-06T02:27:01.941Z,77.85
2017-07-06T02:29:28.308Z,78.98
2017-07-06T02:31:54.645Z,81.42
2017-07-06T02:34:21.000Z,80.12
2017-07-06T02:36:47.361Z,74.05
2017-07-06T02:39:13.706Z,71.97
2017-07-06T02:41:40.075Z,74.40
2017-07-06T02:44:06.429Z,72.61
2017-07-06T02:46:32.772Z,74.48
2017-07-06T02:48:59.093Z,77.65
2017-07-06T02:51:25.438Z,78.46
2017-07-06T02:53:51.787Z,79.59
2017-07-06T02:56:18.150Z,80.51
2017-07-06T02:58:44.531Z,75.80
2017-07-06T03:01:10.863Z,78.71
2017-07-06T03:03:37.210Z,76.11
2017-07-06T03:06:03.574Z,71.50
2017-07-06T03:08:29.954Z,70.18
2017-07-06T03:10:56.357Z,71.80
2017-07-06T03:13:22.792Z,70.86
2017-07-06T03:15:49.197Z,76.52
2017-07-06T03:18:15.565Z,74.80
2017-07-06T03:20:41.939Z,76.79
2017-07-06T03:23:08.288Z,77.72
2017-07-06T03:25:34.678Z,79.01
2017-07-06T03:28:01.044Z,81.44
2017-07-06T03:30:27.452Z,76.91
2017-07-06T03:32:53.828Z,71.51
2017-07-06T03:35:20.211Z,70.16
2017-07-06T03:37:46.581Z,72.16
2017-07-06T03:40:12.952Z,77.79
2017-07-06T03:42:39.320Z,79.05
2017-07-06T03:45:05.671Z,80.06
2017-07-06T03:47:32.054Z,78.78
2017-07-06T03:49:58.434Z,78.41
2017-07-06T03:52:24.789Z,75.88
2017-07-06T03:54:51.119Z,76.58
2017-07-06T03:57:17.491Z,74.08
2017-07-06T03:59:43.864Z,72.15
2017-07-06T04:02:10.219Z,72.46
2017-07-06T04:04:36.556Z,72.72
2017-07-06T04:07:02.969Z,70.60
2017-07-06T04:09:29.299Z,71.06
2017-07-06T04:11:55.672Z,70.11
2017-07-06T04:14:22.005Z,70.05
2017-07-06T04:16:48.376Z,72.94
2017-07-06T04:19:14.777Z,74.57
2017-07-06T04:21:41.112Z,72.21
2017-07-06T04:24:07.471Z,71.58
2017-07-06T04:26:33.842Z,74.46
2017-07-06T04:29:00.210Z,75.23
2017-07-06T04:31:26.548Z,73.15
2017-07-06T04:33:52.888Z,73.36
2017-07-06T04:36:19.245Z,71.05
2017-07-06T04:38:45.619Z,70.23
2017-07-06T04:41:11.984Z,72.92
2017-07-06T04:43:38.332Z,72.33
2017-07-06T04:46:04.678Z,70.56
2017-07-06T04:48:31.058Z,70.57
2017-07-06T04:50:57.376Z,72.85
2017-07-06T04:53:23.764Z,73.20
2017-07-06T04:55:50.153Z,72.53
2017-07-06T04:58:16.532Z,72.06
2017-07-06T05:00:42.878Z,74.98
2017-07-06T05:03:09.242Z,76.49
2017-07-06T05:05:35.597Z,76.44
2017-07-06T05:08:01.941Z,77.76
2017-07-06T05:10:28.299Z,76.77
2017-07-06T05:12:54.708Z,76.94
2017-07-06T05:15:21.073Z,75.90
2017-07-06T05:17:47.411Z,78.42
2017-07-06T05:20:13.770Z,77.36
2017-07-06T05:22:40.108Z,77.85
2017-07-06T05:25:06.491Z,75.40
2017-07-06T05:27:32.855Z,75.00
2017-07-06T05:29:59.192Z,76.03
2017-07-06T05:32:25.537Z,77.52
2017-07-06T05:34:51.901Z,79.60
2017-07-06T05:37:18.271Z,80.85
2017-07-06T05:39:44.632Z,81.26
2017-07-06T05:42:11.033Z,77.41
2017-07-06T05:44:37.429Z,78.56
2017-07-06T05:47:03.791Z,75.46
2017-07-06T05:49:30.159Z,77.43
2017-07-06T05:51:56.519Z,78.02
2017-07-06T05:54:22.934Z,80.14
2017-07-06T05:56:49.319Z,78.89
2017-07-06T05:59:15.757Z,77.26
2017-07-06T06:01:42.217Z,75.32
2017-07-06T06:04:08.650Z,73.84
2017-07-06T06:06:35.103Z,78.03
2017-07-06T06:09:01.471Z,77.11
2017-07-06T06:11:27.864Z,75.97
2017-07-06T06:13:54.224Z,78.39
2017-07-06T06:16:20.636Z,79.32
2017-07-06T06:18:47.077Z,79.77
2017-07-06T06:21:22.516Z,79.58
2017-07-06T06:23:51.065Z,76.82
2017-07-06T06:26:17.529Z,74.52
2017-07-06T06:28:43.906Z,73.99
2017-07-06T06:31:11.160Z,74.11
2017-07-06T06:33:37.502Z,73.89
2017-07-06T06:36:03.875Z,72.86
2017-07-06T06:38:30.223Z,73.75
2017-07-06T06:40:56.600Z,74.67
2017-07-06T06:43:22.947Z,76.67
2017-07-06T06:45:49.345Z,77.63
2017-07-06T06:48:15.712Z,76.77
2017-07-06T06:50:42.081Z,74.44
2017-07-06T06:53:08.465Z,75.13
2017-07-06T06:55:35.053Z,74.59
2017-07-06T06:58:01.410Z,72.37
2017-07-06T07:00:27.763Z,71.94
2017-07-06T07:02:54.126Z,74.50
2017-07-06T07:05:20.523Z,73.17
2017-07-06T07:07:46.900Z,73.83
2017-07-06T07:10:13.289Z,71.60
2017-07-06T07:12:39.709Z,71.50
2017-07-06T07:15:06.115Z,70.89
2017-07-06T07:17:32.489Z,70.64
2017-07-06T07:19:58.819Z,72.05
2017-07-06T07:22:25.158Z,71.95
2017-07-06T07:24:51.512Z,71.83
2017-07-06T07:27:17.902Z,71.27
2017-07-06T07:29:44.493Z,72.15
2017-07-06T07:32:10.851Z,70.44
2017-07-06T07:34:37.210Z,71.11
2017-07-06T07:37:03.578Z,67.39
2017-07-06T07:39:29.966Z,67.25
2017-07-06T07:41:56.325Z,68.87
2017-07-06T07:44:22.704Z,69.90
2017-07-06T07:46:49.128Z,70.71
2017-07-06T07:49:15.564Z,69.88
2017-07-06T07:51:41.926Z,70.22
2017-07-06T07:54:08.273Z,68.83
2017-07-06T07:56:34.657Z,68.93
2017-07-06T07:59:01.062Z,68.33
2017-07-06T08:01:27.408Z,67.85
2017-07-06T08:03:53.790Z,67.22
2017-07-06T08:06:20.185Z,67.28
2017-07-06T08:08:46.543Z,64.59
2017-07-06T08:11:12.946Z,61.64
2017-07-06T08:13:39.325Z,64.36
2017-07-06T08:16:06.122Z,63.58
2017-07-06T08:18:32.815Z,65.74
2017-07-06T08:20:59.204Z,63.94
2017-07-06T08:23:25.568Z,63.76
2017-07-06T08:25:51.929Z,59.58
2017-07-06T08:28:18.312Z,59.25
2017-07-06T08:30:44.694Z,61.56
2017-07-06T08:33:11.091Z,61.47
2017-07-06T08:35:37.459Z,63.27
2017-07-06T08:38:03.836Z,57.84
2017-07-06T08:40:30.534Z,57.05
2017-07-06T08:42:56.891Z,57.12
2017-07-06T08:45:23.290Z,58.90
2017-07-06T08:47:49.723Z,59.25
2017-07-06T08:50:16.085Z,57.46
2017-07-06T08:52:42.470Z,58.21
2017-07-06T08:55:08.869Z,53.82
2017-07-06T08:57:35.224Z,55.98
2017-07-06T09:00:01.618Z,55.21
2017-07-06T09:02:28.039Z,55.42
2017-07-06T09:04:54.381Z,55.14
2017-07-06T09:07:20.797Z,54.50
2017-07-06T09:09:47.157Z,53.41
2017-07-06T09:12:13.570Z,53.78
2017-07-06T09:14:39.993Z,53.38
2017-07-06T09:17:06.408Z,50.91
2017-07-06T09:19:32.877Z,48.84
2017-07-06T09:21:59.286Z,52.63
2017-07-06T09:24:25.669Z,51.02
2017-07-06T09:26:52.031Z,51.55
2017-07-06T09:29:18.457Z,49.84
2017-07-06T09:31:44.849Z,50.33
2017-07-06T09:34:11.226Z,50.47
2017-07-06T09:36:37.613Z,47.79
2017-07-06T09:39:04.104Z,47.95
2017-07-06T09:41:30.449Z,46.97
2017-07-06T09:43:56.873Z,45.98
2017-07-06T09:46:23.256Z,44.68
2017-07-06T09:48:49.618Z,48.26
2017-07-06T09:51:15.969Z,45.88
2017-07-06T09:53:42.355Z,41.36
2017-07-06T09:56:08.725Z,41.43
2017-07-06T09:58:35.093Z,44.05
2017-07-06T10:01:01.462Z,43.77
2017-07-06T10:03:27.817Z,41.30
2017-07-06T10:05:54.210Z,41.34
2017-07-06T10:08:20.583Z,41.53
2017-07-06T10:10:46.961Z,39.96
2017-07-06T10:13:13.316Z,42.15
2017-07-06T10:15:39.695Z,43.01
2017-07-06T10:18:06.045Z,43.66
2017-07-06T10:20:32.415Z,44.67
2017-07-06T10:22:58.792Z,43.55
2017-07-06T10:25:25.156Z,40.66
2017-07-06T10:27:51.570Z,37.56
2017-07-06T10:30:17.921Z,38.38
2017-07-06T10:32:44.317Z,39.06
2017-07-06T10:35:10.674Z,40.32
2017-07-06T10:37:37.022Z,40.14
2017-07-06T10:40:03.388Z,37.69
2017-07-06T10:42:29.783Z,38.37
2017-07-06T10:44:56.169Z,40.97
2017-07-06T10:47:22.571Z,39.12
2017-07-06T10:49:48.952Z,41.59
2017-07-06T10:52:15.301Z,40.16
2017-07-06T10:54:41.686Z,42.47
2017-07-06T10:57:08.077Z,40.74
2017-07-06T10:59:34.445Z,40.82
2017-07-06T11:02:00.794Z,41.01
2017-07-06T11:04:27.158Z,41.73
2017-07-06T11:06:53.517Z,40.63
2017-07-06T11:09:19.900Z,45.05
2017-07-06T11:11:46.279Z,45.70
2017-07-06T11:14:12.713Z,42.41
2017-07-06T11:16:39.111Z,41.41
2017-07-06T11:19:05.494Z,38.61
2017-07-06T11:21:31.871Z,40.35
2017-07-06T11:23:58.262Z,40.30
2017-07-06T11:26:24.667Z,40.55
2017-07-06T11:28:51.300Z,39.72
2017-07-06T11:31:17.777Z,39.42
2017-07-06T11:33:44.160Z,41.84
2017-07-06T11:36:10.547Z,39.42
2017-07-06T11:38:36.942Z,39.83
2017-07-06T11:41:03.323Z,38.96
2017-07-06T11:43:29.729Z,39.22
2017-07-06T11:45:56.149Z,40.19
2017-07-06T11:48:22.512Z,39.69
2017-07-06T11:50:48.888Z,39.87
2017-07-06T11:53:15.323Z,40.12
2017-07-06T11:55:41.715Z,39.64
2017-07-06T11:58:08.109Z,39.91
2017-07-06T12:00:34.527Z,40.42
2017-07-06T12:03:00.899Z,40.54
2017-07-06T12:05:27.292Z,35.62
2017-07-06T12:07:53.687Z,38.34
2017-07-06T12:10:20.100Z,38.52
2017-07-06T12:12:46.503Z,38.94
2017-07-06T12:15:12.951Z,39.09
2017-07-06T12:17:39.334Z,40.60
2017-07-06T12:20:05.696Z,40.78
2017-07-06T12:22:32.052Z,40.75
2017-07-06T12:24:58.473Z,40.36
2017-07-06T12:27:24.931Z,40.46
2017-07-06T12:29:51.429Z,39.58
2017-07-06T12:32:17.857Z,39.74
2017-07-06T12:34:44.299Z,39.58
2017-07-06T12:37:10.659Z,40.16
2017-07-06T12:39:37.131Z,39.72
2017-07-06T12:42:03.517Z,41.45
2017-07-06T12:44:29.909Z,40.23
2017-07-06T12:46:56.349Z,40.77
2017-07-06T12:49:22.877Z,39.22
2017-07-06T12:51:49.489Z,39.88
2017-07-06T12:54:15.873Z,39.70
2017-07-06T12:56:42.258Z,37.36
2017-07-06T12:59:08.668Z,39.54
2017-07-06T13:01:35.066Z,39.91
2017-07-06T13:04:01.442Z,39.13
2017-07-06T13:06:27.835Z,39.96
2017-07-06T13:08:54.249Z,41.96
2017-07-06T13:11:20.716Z,40.77
2017-07-06T13:13:47.084Z,38.51
2017-07-06T13:16:13.557Z,36.10
2017-07-06T13:18:39.967Z,37.61
2017-07-06T13:21:07.317Z,35.34
2017-07-06T13:23:33.705Z,34.05
2017-07-06T13:26:00.192Z,35.54
2017-07-06T13:28:26.561Z,35.41
2017-07-06T13:30:52.931Z,35.09
2017-07-06T13:33:19.325Z,35.40
2017-07-06T13:35:45.810Z,36.16
2017-07-06T13:38:12.241Z,32.85
2017-07-06T13:40:38.589Z,34.02
2017-07-06T13:43:05.567Z,35.86
2017-07-06T13:45:31.948Z,36.03
2017-07-06T13:47:58.461Z,36.48
2017-07-06T13:50:24.860Z,37.95
2017-07-06T13:52:51.260Z,38.25
2017-07-06T13:55:17.680Z,38.15
2017-07-06T13:57:44.087Z,38.39
2017-07-06T14:00:10.510Z,37.84
2017-07-06T14:02:36.962Z,39.42
2017-07-06T14:05:05.787Z,39.80
2017-07-06T14:07:32.291Z,40.82
2017-07-06T14:09:58.770Z,41.08
2017-07-06T14:12:25.168Z,42.14
2017-07-06T14:14:51.612Z,42.87
2017-07-06T14:17:18.012Z,43.04
2017-07-06T14:19:44.411Z,42.99
2017-07-06T14:22:10.796Z,43.15
2017-07-06T14:24:40.861Z,42.82
2017-07-06T14:27:07.322Z,43.61
2017-07-06T14:29:44.631Z,43.88
2017-07-06T14:32:13.003Z,44.84
2017-07-06T14:34:39.406Z,45.43
2017-07-06T14:37:06.621Z,45.11
2017-07-06T14:39:33.342Z,45.72
2017-07-06T14:41:59.735Z,45.64
2017-07-06T14:44:26.170Z,44.62
2017-07-06T14:46:52.603Z,43.93
2017-07-06T14:49:18.985Z,45.37
2017-07-06T14:51:46.260Z,44.87
2017-07-06T14:54:15.465Z,45.29
2017-07-06T14:56:42.107Z,45.70
2017-07-06T14:59:09.575Z,45.94
2017-07-06T15:01:36.535Z,47.58
2017-07-06T15:04:02.925Z,47.01
2017-07-06T15:06:29.340Z,47.51
2017-07-06T15:08:55.706Z,47.94
2017-07-06T15:11:22.061Z,50.00
2017-07-06T15:13:48.405Z,48.32
2017-07-06T15:16:14.944Z,47.74
2017-07-06T15:18:47.578Z,47.96
2017-07-06T15:21:14.795Z,47.96
2017-07-06T15:23:45.170Z,48.41
2017-07-06T15:26:17.383Z,48.23
2017-07-06T15:28:57.437Z,48.37
2017-07-06T15:31:24.718Z,49.88
2017-07-06T15:33:51.260Z,50.79
2017-07-06T15:36:19.443Z,52.23
2017-07-06T15:38:46.077Z,54.42
2017-07-06T15:41:13.220Z,58.16
2017-07-06T15:43:39.852Z,64.44
2017-07-06T15:46:06.262Z,63.34
2017-07-06T15:48:32.800Z,66.92
2017-07-06T15:50:59.427Z,67.62
2017-07-06T15:53:25.935Z,68.10
2017-07-06T15:55:52.342Z,69.32
2017-07-06T15:58:18.970Z,70.52
2017-07-06T16:00:45.507Z,70.47
2017-07-06T16:03:11.927Z,66.62
2017-07-06T16:05:38.287Z,64.80
2017-07-06T16:08:05.518Z,64.37
2017-07-06T16:10:31.992Z,63.41
2017-07-06T16:12:58.414Z,63.94
2017-07-06T16:15:24.818Z,69.87
2017-07-06T16:17:51.190Z,64.83
2017-07-06T16:20:17.557Z,64.03
2017-07-06T16:22:43.965Z,63.32
2017-07-06T16:25:12.301Z,61.38
2017-07-06T16:27:38.680Z,60.90
2017-07-06T16:30:05.198Z,59.56
2017-07-06T16:32:32.507Z,56.94
2017-07-06T16:34:58.886Z,57.32
2017-07-06T16:37:25.287Z,57.73
2017-07-06T16:39:51.731Z,56.78
2017-07-06T16:42:18.188Z,55.39
2017-07-06T16:44:44.645Z,54.51
2017-07-06T16:47:11.253Z,55.32
2017-07-06T16:49:37.673Z,55.33
2017-07-06T16:52:04.803Z,54.58
2017-07-06T16:54:31.291Z,52.06
2017-07-06T16:56:57.663Z,51.87
2017-07-06T16:59:24.630Z,52.37
2017-07-06T17:01:50.991Z,49.63
2017-07-06T17:04:17.411Z,50.54
2017-07-06T17:06:49.428Z,50.17
2017-07-06T17:09:15.792Z,49.78
2017-07-06T17:11:42.205Z,50.84
2017-07-06T17:14:08.580Z,51.50
2017-07-06T17:16:34.958Z,53.58
2017-07-06T17:19:01.413Z,55.03
2017-07-06T17:21:27.828Z,52.66
2017-07-06T17:23:54.679Z,54.04
2017-07-06T17:26:21.157Z,52.87
2017-07-06T17:28:47.659Z,54.60
2017-07-06T17:31:14.063Z,55.01
2017-07-06T17:33:41.620Z,55.88
2017-07-06T17:36:08.370Z,55.87
2017-07-06T17:38:34.885Z,56.77
2017-07-06T17:41:01.441Z,56.64
2017-07-06T17:43:30.730Z,57.61
2017-07-06T17:45:57.160Z,55.91
2017-07-06T17:48:23.549Z,55.51
2017-07-06T17:50:49.928Z,55.34
2017-07-06T17:53:16.329Z,55.23
2017-07-06T17:55:42.693Z,55.96
2017-07-06T17:58:09.087Z,55.30
2017-07-06T18:00:35.477Z,55.54
2017-07-06T18:03:01.930Z,55.40
2017-07-06T18:05:28.311Z,55.87
2017-07-06T18:07:54.702Z,56.14
2017-07-06T18:10:21.038Z,57.07
2017-07-06T18:12:47.408Z,57.94
2017-07-06T18:15:13.813Z,57.56
2017-07-06T18:17:40.190Z,56.63
2017-07-06T18:20:06.574Z,58.50
2017-07-06T18:22:32.957Z,57.26
2017-07-06T18:24:59.331Z,57.52
2017-07-06T18:27:25.713Z,58.71
2017-07-06T18:29:52.920Z,57.72
2017-07-06T18:32:19.294Z,58.15
2017-07-06T18:34:45.706Z,58.79
2017-07-06T18:37:12.120Z,59.87
2017-07-06T18:39:38.557Z,57.96
2017-07-06T18:42:04.955Z,57.90
2017-07-06T18:44:31.354Z,60.08
2017-07-06T18:46:58.078Z,58.88
2017-07-06T18:49:24.444Z,60.61
2017-07-06T18:51:50.895Z,58.74
2017-07-06T18:54:17.234Z,60.09
2017-07-06T18:56:43.570Z,58.80
2017-07-06T18:59:09.981Z,60.30
2017-07-06T19:01:36.374Z,58.93
2017-07-06T19:04:02.728Z,58.01
2017-07-06T19:06:29.138Z,58.27
2017-07-06T19:08:55.550Z,57.29
2017-07-06T19:11:21.950Z,56.62
2017-07-06T19:13:48.353Z,57.50
2017-07-06T19:16:14.741Z,57.03
2017-07-06T19:18:41.094Z,57.33
2017-07-06T19:21:07.507Z,57.47
2017-07-06T19:23:33.901Z,57.58
2017-07-06T19:26:01.826Z,58.18
2017-07-06T19:28:29.677Z,59.19
2017-07-06T19:30:56.123Z,59.36
2017-07-06T19:33:22.499Z,60.29
2017-07-06T19:35:48.854Z,59.98
2017-07-06T19:38:15.252Z,59.66
2017-07-06T19:40:41.661Z,60.29
2017-07-06T19:43:08.021Z,61.54
2017-07-06T19:45:34.421Z,60.42
2017-07-06T19:48:04.210Z,58.79
2017-07-06T19:50:30.770Z,58.55
2017-07-06T19:52:57.195Z,62.00
2017-07-06T19:55:23.667Z,59.40
2017-07-06T19:57:50.056Z,62.35
2017-07-06T20:00:19.863Z,64.29
2017-07-06T20:02:50.485Z,63.82
2017-07-06T20:05:17.093Z,62.92
2017-07-06T20:07:43.494Z,60.68
2017-07-06T20:10:09.897Z,61.72
2017-07-06T20:12:36.327Z,63.64
2017-07-06T20:15:02.708Z,62.83
2017-07-06T20:18:10.493Z,64.99
2017-07-06T20:20:36.932Z,61.98
2017-07-06T20:23:03.386Z,61.65
2017-07-06T20:25:29.768Z,63.95
2017-07-06T20:27:56.106Z,63.35
2017-07-06T20:30:22.476Z,63.03
2017-07-06T20:32:48.850Z,61.96
2017-07-06T20:35:15.293Z,64.17
2017-07-06T20:37:41.682Z,63.72
2017-07-06T20:40:08.144Z,65.02
2017-07-06T20:42:34.529Z,65.70
2017-07-06T20:45:00.920Z,65.62
2017-07-06T20:47:27.331Z,66.54
2017-07-06T20:49:53.657Z,66.26
2017-07-06T20:52:20.025Z,64.93
2017-07-06T20:54:46.366Z,65.43
2017-07-06T20:57:12.803Z,65.31
2017-07-06T20:59:39.177Z,65.24
2017-07-06T21:02:05.558Z,65.63
2017-07-06T21:04:31.942Z,63.94
2017-07-06T21:06:58.333Z,62.56
2017-07-06T21:09:24.730Z,63.30
2017-07-06T21:11:51.127Z,64.14
2017-07-06T21:14:17.515Z,64.70
2017-07-06T21:16:43.873Z,63.67
2017-07-06T21:19:10.248Z,65.16
2017-07-06T21:21:36.648Z,65.92
2017-07-06T21:24:03.178Z,68.12
2017-07-06T21:26:29.542Z,65.14
2017-07-06T21:28:55.974Z,71.16
2017-07-06T21:31:22.341Z,70.68
2017-07-06T21:33:48.804Z,75.15
2017-07-06T21:36:15.209Z,79.66
2017-07-06T21:38:41.590Z,78.77
2017-07-06T21:41:07.938Z,70.09
2017-07-06T21:43:34.386Z,70.87
2017-07-06T21:46:00.783Z,79.49
2017-07-06T21:48:27.150Z,80.95
2017-07-06T21:50:53.542Z,78.28
2017-07-06T21:53:19.963Z,73.08
2017-07-06T21:55:46.404Z,72.03
2017-07-06T21:58:12.816Z,78.07
2017-07-06T22:00:39.844Z,80.30
2017-07-06T22:03:06.260Z,83.01
2017-07-06T22:05:32.645Z,83.44
2017-07-06T22:07:59.640Z,78.23
2017-07-06T22:10:27.449Z,72.63
2017-07-06T22:12:53.838Z,72.98
2017-07-06T22:15:20.200Z,72.42
2017-07-06T22:17:46.796Z,76.06
2017-07-06T22:20:13.169Z,73.93
2017-07-06T22:22:39.590Z,75.57
2017-07-06T22:25:06.309Z,80.06
2017-07-06T22:27:33.236Z,83.40
2017-07-06T22:29:59.605Z,80.88
2017-07-06T22:32:25.948Z,82.19
2017-07-06T22:34:52.823Z,81.65
2017-07-06T22:37:19.203Z,81.73
2017-07-06T22:39:45.590Z,82.21
2017-07-06T22:42:11.994Z,81.97
2017-07-06T22:44:38.730Z,80.78
2017-07-06T22:47:05.142Z,79.95
2017-07-06T22:49:31.509Z,81.21
2017-07-06T22:51:58.000Z,82.83
2017-07-06T22:54:24.456Z,82.18
2017-07-06T22:56:50.885Z,79.64
2017-07-06T22:59:17.243Z,81.84
2017-07-06T23:01:43.621Z,80.01
2017-07-06T23:04:09.965Z,77.04
2017-07-06T23:06:36.288Z,78.49
2017-07-06T23:09:02.790Z,79.18
2017-07-06T23:11:29.147Z,78.13
2017-07-06T23:13:55.517Z,77.25
2017-07-06T23:16:21.892Z,84.18
2017-07-06T23:18:48.320Z,85.80
2017-07-06T23:21:14.711Z,80.65
2017-07-06T23:23:41.068Z,84.00
2017-07-06T23:26:07.430Z,84.83
2017-07-06T23:28:33.785Z,83.43
2017-07-06T23:31:00.177Z,84.85
2017-07-06T23:33:26.510Z,84.87
2017-07-06T23:35:52.882Z,81.54
2017-07-06T23:38:19.242Z,77.79
2017-07-06T23:40:46.610Z,80.10
2017-07-06T23:43:13.076Z,83.64
2017-07-06T23:45:39.557Z,85.03
2017-07-06T23:48:05.957Z,84.29
2017-07-06T23:50:32.397Z,79.86
2017-07-06T23:52:58.758Z,77.70
2017-07-06T23:55:25.120Z,80.29
2017-07-06T23:57:51.512Z,77.62
